createdAt,value
2022-09-12T00:04:06.754Z,100.00
2022-09-12T00:09:14.728Z,100.00
2022-09-12T00:14:17.970Z,100.00
2022-09-12T00:19:18.662Z,100.00
2022-09-12T00:24:19.963Z,100.00
2022-09-12T00:29:22.314Z,100.00
2022-09-12T00:34:23.079Z,100.00
2022-09-12T00:39:23.844Z,100.00
2022-09-12T00:44:47.739Z,100.00
2022-09-12T00:50:21.931Z,100.00
2022-09-12T00:55:30.490Z,100.00
2022-09-12T01:00:31.712Z,100.00
2022-09-12T01:05:35.894Z,100.00
2022-09-12T01:10:38.249Z,100.00
2022-09-12T01:15:40.067Z,100.00
2022-09-12T01:28:45.239Z,100.00
2022-09-12T01:34:43.100Z,100.00
2022-09-12T01:42:46.269Z,100.00
2022-09-12T01:48:16.589Z,100.00
2022-09-12T01:53:28.867Z,100.00
2022-09-12T01:58:42.352Z,100.00
2022-09-12T02:04:14.239Z,100.00
2022-09-12T02:10:11.295Z,100.00
2022-09-12T02:15:16.597Z,100.00
2022-09-12T02:20:44.393Z,100.00
2022-09-12T02:25:53.198Z,100.00
2022-09-12T02:34:23.550Z,100.00
2022-09-12T02:39:24.701Z,100.00
2022-09-12T02:44:27.988Z,100.00
2022-09-12T02:49:28.753Z,100.00
2022-09-12T02:54:30.430Z,100.00
2022-09-12T02:59:31.773Z,100.00
2022-09-12T03:07:40.256Z,100.00
2022-09-12T03:13:03.632Z,100.00
2022-09-12T03:18:11.825Z,100.00
2022-09-12T03:23:48.551Z,100.00
2022-09-12T03:28:51.241Z,100.00
2022-09-12T03:33:51.962Z,100.00
2022-09-12T03:38:53.675Z,100.00
2022-09-12T03:43:56.283Z,100.00
2022-09-12T03:48:57.051Z,100.00
2022-09-12T03:53:58.550Z,100.00
2022-09-12T03:58:59.569Z,100.00
2022-09-12T04:04:00.852Z,100.00
2022-09-12T04:09:01.597Z,100.00
2022-09-12T04:14:02.365Z,100.00
2022-09-12T04:19:03.147Z,100.00
2022-09-12T04:24:04.304Z,100.00
2022-09-12T04:29:05.322Z,100.00
2022-09-12T04:34:07.116Z,100.00
2022-09-12T04:39:09.294Z,100.00
2022-09-12T04:44:12.904Z,100.00
2022-09-12T04:49:15.638Z,100.00
2022-09-12T04:54:18.683Z,100.00
2022-09-12T04:59:20.009Z,100.00
2022-09-12T05:04:20.864Z,100.00
2022-09-12T05:09:21.945Z,100.00
2022-09-12T05:14:23.072Z,100.00
2022-09-12T05:19:23.804Z,100.00
2022-09-12T05:24:24.918Z,100.00
2022-09-12T05:29:25.901Z,100.00
2022-09-12T05:34:27.176Z,100.00
2022-09-12T05:39:27.959Z,100.00
2022-09-12T05:44:30.630Z,100.00
2022-09-12T05:49:31.382Z,100.00
2022-09-12T05:54:32.904Z,100.00
2022-09-12T05:59:34.193Z,100.00
2022-09-12T06:04:39.932Z,100.00
2022-09-12T06:09:40.810Z,100.00
2022-09-12T06:14:41.731Z,100.00
2022-09-12T06:19:42.463Z,100.00
2022-09-12T06:24:43.468Z,100.00
2022-09-12T06:29:44.373Z,100.00
2022-09-12T06:34:47.630Z,100.00
2022-09-12T06:39:48.443Z,100.00
2022-09-12T06:44:49.727Z,100.00
2022-09-12T06:49:50.510Z,100.00
2022-09-12T06:54:51.639Z,100.00
2022-09-12T06:59:52.619Z,100.00
2022-09-12T07:04:53.371Z,100.00
2022-09-12T07:09:56.860Z,100.00
2022-09-12T07:14:57.589Z,100.00
2022-09-12T07:19:58.394Z,100.00
2022-09-12T07:24:59.135Z,100.00
2022-09-12T07:30:00.957Z,100.00
2022-09-12T07:35:01.731Z,100.00
2022-09-12T07:40:03.014Z,100.00
2022-09-12T07:45:05.113Z,100.00
2022-09-12T07:50:06.666Z,100.00
2022-09-12T07:55:07.475Z,100.00
2022-09-12T08:00:12.624Z,100.00
2022-09-12T08:05:13.297Z,100.00
2022-09-12T08:10:15.486Z,100.00
2022-09-12T08:15:33.795Z,100.00
2022-09-12T08:20:34.785Z,100.00
2022-09-12T08:25:35.527Z,100.00
2022-09-12T08:30:36.553Z,100.00
2022-09-12T08:35:37.444Z,97.95
2022-09-12T08:40:59.450Z,93.71
2022-09-12T08:46:17.644Z,92.52
2022-09-12T08:51:20.089Z,91.92
2022-09-12T08:56:25.078Z,88.41
2022-09-12T09:01:45.269Z,90.10
2022-09-12T09:07:14.296Z,88.68
2022-09-12T09:12:44.538Z,84.50
2022-09-12T09:17:50.905Z,85.75
2022-09-12T09:23:03.043Z,83.74
2022-09-12T09:28:11.869Z,80.22
2022-09-12T09:33:21.345Z,78.79
2022-09-12T09:43:07.280Z,78.78
2022-09-12T09:48:33.413Z,79.75
2022-09-12T09:53:54.378Z,77.26
2022-09-12T09:59:09.439Z,76.07
2022-09-12T10:04:19.675Z,74.52
2022-09-12T10:09:25.257Z,75.59
2022-09-12T10:14:38.646Z,74.48
2022-09-12T10:19:39.671Z,76.00
2022-09-12T10:24:45.525Z,76.25
2022-09-12T10:29:59.261Z,73.80
2022-09-12T10:35:03.594Z,71.92
2022-09-12T10:40:25.541Z,70.91
2022-09-12T10:45:35.102Z,68.44
2022-09-12T10:50:40.689Z,64.43
2022-09-12T10:55:57.109Z,64.24
2022-09-12T11:01:55.392Z,62.40
2022-09-12T11:07:47.419Z,66.27
2022-09-12T11:13:14.539Z,65.57
2022-09-12T11:18:41.563Z,68.24
2022-09-12T11:24:08.884Z,67.26
2022-09-12T11:29:42.479Z,60.65
2022-09-12T11:35:00.999Z,57.38
2022-09-12T11:40:19.876Z,57.54
2022-09-12T11:45:42.708Z,56.83
2022-09-12T11:50:43.487Z,58.47
2022-09-12T11:56:15.259Z,55.20
2022-09-12T12:01:27.934Z,54.50
2022-09-12T12:06:33.439Z,55.66
2022-09-12T12:11:39.408Z,53.97
2022-09-12T12:16:40.988Z,51.20
2022-09-12T12:21:47.591Z,49.90
2022-09-12T12:27:03.043Z,50.23
2022-09-12T12:32:25.701Z,49.42
2022-09-12T12:37:50.379Z,48.46
2022-09-12T12:43:02.799Z,48.06
2022-09-12T12:48:14.395Z,50.94
2022-09-12T12:53:21.515Z,51.61
2022-09-12T12:58:35.441Z,50.30
2022-09-12T13:03:40.083Z,49.53
2022-09-12T13:08:54.668Z,49.39
2022-09-12T13:14:02.404Z,49.68
2022-09-12T13:19:17.985Z,51.21
2022-09-12T13:24:22.443Z,50.88
2022-09-12T13:29:25.415Z,49.78
2022-09-12T13:34:33.729Z,49.92
2022-09-12T13:43:00.894Z,48.46
2022-09-12T13:48:03.414Z,48.29
2022-09-12T13:53:06.578Z,46.73
2022-09-12T13:58:31.471Z,45.59
2022-09-12T14:03:58.921Z,45.73
2022-09-12T14:09:00.971Z,46.96
2022-09-12T14:14:05.994Z,46.89
2022-09-12T14:19:11.611Z,45.38
2022-09-12T14:24:13.999Z,44.66
2022-09-12T14:29:16.041Z,44.90
2022-09-12T14:34:18.775Z,43.96
2022-09-12T14:40:04.189Z,43.68
2022-09-12T14:45:23.911Z,43.38
2022-09-12T14:50:28.904Z,42.41
2022-09-12T14:55:32.236Z,43.16
2022-09-12T15:00:32.990Z,43.58
2022-09-12T15:05:48.546Z,44.71
2022-09-12T15:10:50.001Z,43.94
2022-09-12T15:15:56.031Z,44.17
2022-09-12T15:21:01.774Z,45.85
2022-09-12T15:26:03.286Z,45.45
2022-09-12T15:31:20.423Z,44.89
2022-09-12T15:36:22.766Z,45.06
2022-09-12T15:41:33.744Z,44.47
2022-09-12T15:46:34.932Z,44.69
2022-09-12T15:51:36.385Z,44.77
2022-09-12T15:56:37.491Z,45.10
2022-09-12T16:01:38.830Z,46.64
2022-09-12T16:06:39.781Z,46.28
2022-09-12T16:11:40.897Z,48.10
2022-09-12T16:16:42.621Z,48.07
2022-09-12T16:21:43.705Z,47.71
2022-09-12T16:26:44.464Z,48.09
2022-09-12T16:31:45.263Z,47.67
2022-09-12T16:36:46.357Z,48.59
2022-09-12T16:41:47.124Z,48.98
2022-09-12T16:46:49.256Z,48.87
2022-09-12T16:51:50.228Z,49.82
2022-09-12T16:56:51.070Z,49.77
2022-09-12T17:01:51.960Z,51.38
2022-09-12T17:06:53.335Z,52.29
2022-09-12T17:11:55.023Z,54.47
2022-09-12T17:16:55.805Z,54.89
2022-09-12T17:21:58.137Z,54.61
2022-09-12T17:26:58.976Z,55.28
2022-09-12T17:31:59.925Z,55.68
2022-09-12T17:37:01.284Z,55.63
2022-09-12T17:42:02.218Z,56.56
2022-09-12T17:47:04.691Z,57.91
2022-09-12T17:52:05.551Z,58.71
2022-09-12T17:57:06.450Z,59.39
2022-09-12T18:02:15.408Z,59.05
2022-09-12T18:07:18.209Z,59.42
2022-09-12T18:12:19.288Z,60.34
2022-09-12T18:17:22.890Z,61.63
2022-09-12T18:22:24.308Z,63.28
2022-09-12T18:27:25.372Z,65.12
2022-09-12T18:32:26.108Z,66.62
2022-09-12T18:37:26.876Z,67.74
2022-09-12T18:42:27.625Z,66.93
2022-09-12T18:47:29.991Z,68.12
2022-09-12T18:52:33.375Z,69.46
2022-09-12T18:57:34.368Z,69.11
2022-09-12T19:02:35.147Z,69.54
2022-09-12T19:07:36.422Z,68.74
2022-09-12T19:12:37.223Z,70.05
2022-09-12T19:17:37.963Z,70.09
2022-09-12T19:22:38.801Z,70.75
2022-09-12T19:27:39.549Z,71.18
2022-09-12T19:32:40.627Z,70.35
2022-09-12T19:37:41.392Z,70.76
2022-09-12T19:42:42.167Z,72.40
2022-09-12T19:47:43.622Z,72.39
2022-09-12T19:52:44.470Z,73.52
2022-09-12T19:57:45.255Z,74.64
2022-09-12T20:02:49.753Z,73.89
2022-09-12T20:07:50.748Z,75.21
2022-09-12T20:12:51.539Z,76.89
2022-09-12T20:17:56.606Z,77.12
2022-09-12T20:22:57.519Z,77.53
2022-09-12T20:28:00.276Z,78.05
2022-09-12T20:33:02.011Z,76.68
2022-09-12T20:38:02.752Z,78.00
2022-09-12T20:43:03.532Z,78.58
2022-09-12T20:48:04.335Z,78.77
2022-09-12T20:53:05.332Z,79.54
2022-09-12T20:58:06.075Z,79.01
2022-09-12T21:03:07.730Z,79.90
2022-09-12T21:08:09.522Z,80.36
2022-09-12T21:13:12.222Z,80.29
2022-09-12T21:18:13.257Z,78.88
2022-09-12T21:23:14.089Z,80.17
2022-09-12T21:28:15.974Z,80.37
2022-09-12T21:33:18.982Z,81.19
2022-09-12T21:38:19.817Z,82.33
2022-09-12T21:43:20.563Z,82.62
2022-09-12T21:48:21.642Z,82.69
2022-09-12T21:53:23.367Z,83.68
2022-09-12T21:58:24.326Z,83.62
2022-09-12T22:03:25.450Z,82.48
2022-09-12T22:08:27.540Z,82.19
2022-09-12T22:13:32.993Z,83.03
2022-09-12T22:18:35.251Z,84.04
2022-09-12T22:23:54.660Z,83.55
2022-09-12T22:28:55.682Z,84.79
2022-09-12T22:33:56.937Z,85.27
2022-09-12T22:38:58.626Z,84.86
2022-09-12T22:43:59.410Z,85.74
2022-09-12T22:49:00.437Z,87.02
2022-09-12T22:54:01.712Z,87.15
2022-09-12T22:59:02.558Z,87.72
2022-09-12T23:04:03.394Z,86.26
2022-09-12T23:09:04.189Z,86.49
2022-09-12T23:14:04.967Z,87.18
2022-09-12T23:19:05.716Z,87.32
2022-09-12T23:24:06.605Z,86.34
2022-09-12T23:29:08.449Z,84.82
2022-09-12T23:34:09.831Z,85.23
2022-09-12T23:39:10.988Z,85.06
2022-09-12T23:44:11.752Z,85.87
2022-09-12T23:49:12.503Z,86.87
2022-09-12T23:54:13.420Z,85.87
2022-09-12T23:59:14.141Z,86.68
